Catherine Desgagnes — VOWN — position and weather

sailwx.info

Track history (hours):
 
Tides and Currents Weather Stations Pressure Air Temp Water Temp Dewpoint Dewpoint Depression Visibility Wind Speed Wind Dir Waves Ship Positions

Catherine Desgagnes

Last reported at 2014-Oct-25 05:31 UTC. Time now 2014-Oct-25 06:23 UTC.
Position N 46°03' W 073°08'.

Length 125 m; draft 4.8 m.

Type: Ship. MMSI: 316001203.

Date/timePositionNaut miles runAvg speedWind from/ knotsBaromVisibWave heightAir tempDewpointWater temp
2014-Oct-25 05:31N 46°03' W 073°08'0 0.0
2014-Oct-25 04:31N 46°03' W 073°08'0 0.0
2014-Oct-25 03:31N 46°03' W 073°08'0 0.0
2014-Oct-25 02:31N 46°03' W 073°08'0 0.0
2014-Oct-25 01:31N 46°03' W 073°08'0 0.0
2014-Oct-25 00:28N 46°03' W 073°08'0 0.0
2014-Oct-24 23:31N 46°03' W 073°08'0 0.0
2014-Oct-24 22:31N 46°03' W 073°08'0 0.0
2014-Oct-24 21:31N 46°03' W 073°08'1 0.7
2014-Oct-24 20:16N 46°03' W 073°07'20 0.6
2014-Oct-23 13:33N 46°15' W 072°44'1010.2
2014-Oct-23 12:33N 46°20' W 072°32'1110.7
2014-Oct-23 11:33N 46°26' W 072°19'  
2014-Oct-19 19:15N 46°34' W 072°07'1014.0
2014-Oct-19 18:34N 46°27' W 072°16'1413.8
2014-Oct-19 17:34N 46°19' W 072°33'1211.9
2014-Oct-19 16:33N 46°13' W 072°48'2612.8
2014-Oct-19 14:33N 45°54' W 073°13'1414.1
2014-Oct-19 13:33N 45°43' W 073°26'1313.0
2014-Oct-19 12:33N 45°31' W 073°31'3 2.8
2014-Oct-19 11:33N 45°28' W 073°30'5 4.6
2014-Oct-19 10:33N 45°24' W 073°34'2 1.9
2014-Oct-19 09:33N 45°24' W 073°37'9 8.5
2014-Oct-19 08:33N 45°23' W 073°49'6 6.0
2014-Oct-19 07:33N 45°19' W 073°55'2 1.8
2014-Oct-19 06:33N 45°17' W 073°56'9 9.1
2014-Oct-19 05:33N 45°14' W 074°08'1211.7
2014-Oct-19 04:33N 45°09' W 074°23'92 8.1
2014-Oct-18 17:09N 44°14' W 076°07'712.0
2014-Oct-18 16:33N 44°12' W 076°17'1110.7
2014-Oct-18 15:33N 44°03' W 076°26'  
2014-Oct-16 00:14N 42°29' W 080°07'  
Track history (hours):
 
Tides and Currents Weather Stations Pressure Air Temp Water Temp Dewpoint Dewpoint Depression Visibility Wind Speed Wind Dir Waves Ship Positions

Catherine Desgagnes

Last reported at 2014-Oct-25 05:31 UTC. Time now 2014-Oct-25 06:23 UTC.
Position N 46°03' W 073°08'.

Length 125 m; draft 4.8 m.

Type: Ship. MMSI: 316001203.

Date/timePositionNaut miles runAvg speedWind from/ knotsBaromVisibWave heightAir tempDewpointWater temp
2014-Oct-25 05:31N 46°03' W 073°08'0 0.0
2014-Oct-25 04:31N 46°03' W 073°08'0 0.0
2014-Oct-25 03:31N 46°03' W 073°08'0 0.0
2014-Oct-25 02:31N 46°03' W 073°08'0 0.0
2014-Oct-25 01:31N 46°03' W 073°08'0 0.0
2014-Oct-25 00:28N 46°03' W 073°08'0 0.0
2014-Oct-24 23:31N 46°03' W 073°08'0 0.0
2014-Oct-24 22:31N 46°03' W 073°08'0 0.0
2014-Oct-24 21:31N 46°03' W 073°08'1 0.7
2014-Oct-24 20:16N 46°03' W 073°07'20 0.6
2014-Oct-23 13:33N 46°15' W 072°44'1010.2
2014-Oct-23 12:33N 46°20' W 072°32'1110.7
2014-Oct-23 11:33N 46°26' W 072°19'  
2014-Oct-19 19:15N 46°34' W 072°07'1014.0
2014-Oct-19 18:34N 46°27' W 072°16'1413.8
2014-Oct-19 17:34N 46°19' W 072°33'1211.9
2014-Oct-19 16:33N 46°13' W 072°48'2612.8
2014-Oct-19 14:33N 45°54' W 073°13'1414.1
2014-Oct-19 13:33N 45°43' W 073°26'1313.0
2014-Oct-19 12:33N 45°31' W 073°31'3 2.8
2014-Oct-19 11:33N 45°28' W 073°30'5 4.6
2014-Oct-19 10:33N 45°24' W 073°34'2 1.9
2014-Oct-19 09:33N 45°24' W 073°37'9 8.5
2014-Oct-19 08:33N 45°23' W 073°49'6 6.0
2014-Oct-19 07:33N 45°19' W 073°55'2 1.8
2014-Oct-19 06:33N 45°17' W 073°56'9 9.1
2014-Oct-19 05:33N 45°14' W 074°08'1211.7
2014-Oct-19 04:33N 45°09' W 074°23'92 8.1
2014-Oct-18 17:09N 44°14' W 076°07'712.0
2014-Oct-18 16:33N 44°12' W 076°17'1110.7
2014-Oct-18 15:33N 44°03' W 076°26'  
2014-Oct-16 00:14N 42°29' W 080°07'  

Dump ship's entire track history